Time;durP1;ratioP1;P1;durP2;ratioP2;P2;SDS_P1;SDS_P2;PMS_P1;PMS_P2;Temp;Humidity;BMP_temperature;BMP_pressure;BME280_temperature;BME280_humidity;BME280_pressure;Samples;Min_cycle;Max_cycle;Signal;HPM_P1;HPM_P2
2023/05/08 00:02:25;;;;;;;;;;;15.70;99.90;;;;;;5104231;28;20219;-68
2023/05/08 00:04:52;;;;;;;;;;;15.60;99.90;;;;;;5104502;28;19920;-67
2023/05/08 00:07:20;;;;;;;;;;;15.60;99.90;;;;;;5103795;28;19979;-67
2023/05/08 00:09:46;;;;;;;;;;;15.60;99.90;;;;;;5104405;28;19920;-68
2023/05/08 00:12:13;;;;;;;;;;;15.60;99.90;;;;;;5104375;28;20115;-67
2023/05/08 00:14:40;;;;;;;;;;;15.60;99.90;;;;;;5103883;28;20200;-68
2023/05/08 00:17:06;;;;;;;;;;;15.60;99.90;;;;;;5103306;28;19966;-67
2023/05/08 00:19:33;;;;;;;;;;;15.60;99.90;;;;;;5104125;28;19983;-67
2023/05/08 00:22:00;;;;;;;;;;;15.50;99.90;;;;;;5103947;28;20275;-67
2023/05/08 00:24:27;;;;;;;;;;;15.60;99.90;;;;;;5103873;28;19987;-68
2023/05/08 00:26:54;;;;;;;;;;;15.50;99.90;;;;;;5103484;28;19920;-68
2023/05/08 00:29:21;;;;;;;;;;;15.50;99.90;;;;;;5103962;28;19982;-68
2023/05/08 00:31:47;;;;;;;;;;;15.50;99.90;;;;;;5104157;28;19983;-67
2023/05/08 00:34:14;;;;;;;;;;;15.40;99.90;;;;;;5104078;28;20119;-68
2023/05/08 00:36:41;;;;;;;;;;;15.40;99.90;;;;;;5103168;28;19987;-67
2023/05/08 00:39:08;;;;;;;;;;;15.40;99.90;;;;;;5104031;28;19920;-67
2023/05/08 00:41:36;;;;;;;;;;;15.40;99.90;;;;;;5104085;28;20108;-68
2023/05/08 00:44:02;;;;;;;;;;;15.40;99.90;;;;;;5103930;28;20112;-69
2023/05/08 00:46:29;;;;;;;;;;;15.40;99.90;;;;;;5103334;28;19958;-68
2023/05/08 00:48:56;;;;;;;;;;;15.40;99.90;;;;;;5101386;28;19950;-69
2023/05/08 00:51:23;;;;;;;;;;;15.30;99.90;;;;;;5103857;28;19920;-68
2023/05/08 00:53:50;;;;;;;;;;;15.30;99.90;;;;;;5103726;28;19927;-68
2023/05/08 00:56:18;;;;;;;;;;;15.30;99.90;;;;;;5103277;28;19926;-68
2023/05/08 00:58:46;;;;;;;;;;;15.30;99.90;;;;;;5103710;28;19927;-67
2023/05/08 01:01:13;;;;;;;;;;;15.20;99.90;;;;;;5103352;28;20236;-68
2023/05/08 01:03:40;;;;;;;;;;;15.20;99.90;;;;;;5103530;28;19966;-66
2023/05/08 01:06:07;;;;;;;;;;;15.20;99.90;;;;;;5102747;28;20141;-69
2023/05/08 01:08:34;;;;;;;;;;;15.20;99.90;;;;;;5103391;28;19923;-68
2023/05/08 01:11:06;;;;;;;;;;;15.10;99.90;;;;;;5103505;28;20111;-68
2023/05/08 01:13:38;;;;;;;;;;;15.00;99.90;;;;;;5103505;28;20253;-68
2023/05/08 01:16:11;;;;;;;;;;;15.00;99.90;;;;;;5103039;28;19999;-68
2023/05/08 01:18:42;;;;;;;;;;;14.90;99.90;;;;;;5103218;28;19920;-68
2023/05/08 01:21:13;;;;;;;;;;;14.90;99.90;;;;;;5103574;28;19991;-67
2023/05/08 01:23:57;;;;;;;;;;;14.80;99.90;;;;;;5103069;28;19983;-68
2023/05/08 01:26:43;;;;;;;;;;;14.70;99.90;;;;;;5103137;28;19983;-68
2023/05/08 01:29:25;;;;;;;;;;;14.70;99.90;;;;;;5103097;28;19920;-68
2023/05/08 01:32:04;;;;;;;;;;;14.60;99.90;;;;;;5103596;28;20000;-67
2023/05/08 01:34:31;;;;;;;;;;;14.60;99.90;;;;;;5103179;28;19983;-68
2023/05/08 01:37:00;;;;;;;;;;;14.60;99.90;;;;;;5102704;28;19920;-68
2023/05/08 01:39:32;;;;;;;;;;;14.50;99.90;;;;;;5103633;28;19987;-68
2023/05/08 01:42:00;;;;;;;;;;;14.60;99.90;;;;;;5103157;28;19920;-67
2023/05/08 01:44:28;;;;;;;;;;;14.50;99.90;;;;;;5103044;28;19920;-67
2023/05/08 01:46:55;;;;;;;;;;;14.50;99.90;;;;;;5102667;28;19920;-68
2023/05/08 01:49:25;;;;;;;;;;;14.40;99.90;;;;;;5100901;28;20120;-68
2023/05/08 01:51:56;;;;;;;;;;;14.40;99.90;;;;;;5102833;28;19926;-67
2023/05/08 01:54:25;;;;;;;;;;;14.30;99.90;;;;;;5103146;28;19925;-67
2023/05/08 01:56:53;;;;;;;;;;;14.20;99.90;;;;;;5102026;28;20196;-68
2023/05/08 01:59:22;;;;;;;;;;;14.20;99.90;;;;;;5103046;28;19920;-69
2023/05/08 02:01:49;;;;;;;;;;;14.10;99.90;;;;;;5103199;28;19920;-68
2023/05/08 02:04:16;;;;;;;;;;;14.10;99.90;;;;;;5103102;28;19991;-68
2023/05/08 02:06:44;;;;;;;;;;;14.10;99.90;;;;;;5102377;28;19920;-68
2023/05/08 02:09:11;;;;;;;;;;;14.10;99.90;;;;;;5102597;28;19926;-67
2023/05/08 02:11:39;;;;;;;;;;;14.10;99.90;;;;;;5102767;28;19920;-66
2023/05/08 02:14:07;;;;;;;;;;;14.00;99.90;;;;;;5102897;28;19920;-67
2023/05/08 02:16:34;;;;;;;;;;;14.10;99.90;;;;;;5103406;28;19924;-67
2023/05/08 02:19:02;;;;;;;;;;;14.10;99.90;;;;;;5106612;28;19920;-67
2023/05/08 02:21:29;;;;;;;;;;;14.00;99.90;;;;;;5106353;28;20226;-68
2023/05/08 02:23:57;;;;;;;;;;;14.00;99.90;;;;;;5106451;28;19955;-66
2023/05/08 02:26:25;;;;;;;;;;;13.90;99.90;;;;;;5106046;28;19926;-67
2023/05/08 02:28:52;;;;;;;;;;;14.00;99.90;;;;;;5106092;28;20267;-68
2023/05/08 02:31:19;;;;;;;;;;;13.90;99.90;;;;;;5106155;28;20112;-67
2023/05/08 02:33:46;;;;;;;;;;;13.90;99.90;;;;;;5106185;28;19920;-67
2023/05/08 02:36:15;;;;;;;;;;;13.90;99.90;;;;;;5105470;28;19920;-67
2023/05/08 02:38:44;;;;;;;;;;;13.90;99.90;;;;;;5105765;28;20208;-67
2023/05/08 02:41:13;;;;;;;;;;;13.80;99.90;;;;;;5106171;28;19986;-67
2023/05/08 02:43:40;;;;;;;;;;;13.80;99.90;;;;;;5105583;28;20255;-67
2023/05/08 02:46:10;;;;;;;;;;;13.80;99.90;;;;;;5105769;28;19927;-69
2023/05/08 02:48:38;;;;;;;;;;;13.80;99.90;;;;;;5105315;28;19920;-67
2023/05/08 02:51:12;;;;;;;;;;;13.80;99.90;;;;;;5105516;28;20212;-67
2023/05/08 02:53:43;;;;;;;;;;;13.70;99.90;;;;;;5105469;28;20234;-67
2023/05/08 02:56:16;;;;;;;;;;;13.70;99.90;;;;;;5105603;28;19988;-67
2023/05/08 02:58:45;;;;;;;;;;;13.70;99.90;;;;;;5105849;28;19924;-67
2023/05/08 03:01:19;;;;;;;;;;;13.70;99.90;;;;;;5105410;28;20212;-70
2023/05/08 03:03:49;;;;;;;;;;;13.70;99.90;;;;;;5105680;28;19920;-67
2023/05/08 03:06:19;;;;;;;;;;;13.60;99.90;;;;;;5104772;28;19920;-68
2023/05/08 03:08:48;;;;;;;;;;;13.60;99.90;;;;;;5105024;28;20381;-67
2023/05/08 03:11:17;;;;;;;;;;;13.60;99.90;;;;;;5105567;28;20033;-68
2023/05/08 03:13:46;;;;;;;;;;;13.50;99.90;;;;;;5105534;28;19927;-67
2023/05/08 03:16:16;;;;;;;;;;;13.50;99.90;;;;;;5102648;28;19946;-68
2023/05/08 03:18:45;;;;;;;;;;;13.40;99.90;;;;;;5105380;28;20196;-67
2023/05/08 03:21:13;;;;;;;;;;;13.40;99.90;;;;;;5105316;28;19943;-67
2023/05/08 03:23:40;;;;;;;;;;;13.20;99.90;;;;;;5105354;28;19927;-67
2023/05/08 03:26:07;;;;;;;;;;;13.10;99.90;;;;;;5104720;28;19920;-70
2023/05/08 03:28:36;;;;;;;;;;;13.10;99.90;;;;;;5104943;28;19920;-67
2023/05/08 03:31:04;;;;;;;;;;;13.00;99.90;;;;;;5105294;28;19956;-68
2023/05/08 03:33:32;;;;;;;;;;;13.00;99.90;;;;;;5105191;28;19926;-68
2023/05/08 03:35:59;;;;;;;;;;;13.00;99.90;;;;;;5104639;28;19987;-67
2023/05/08 03:38:26;;;;;;;;;;;13.00;99.90;;;;;;5104473;28;20204;-68
2023/05/08 03:40:53;;;;;;;;;;;12.90;99.90;;;;;;5104978;28;19926;-68
2023/05/08 03:43:20;;;;;;;;;;;12.90;99.90;;;;;;5104871;28;19920;-67
2023/05/08 03:45:48;;;;;;;;;;;12.80;99.90;;;;;;5104652;28;19920;-68
2023/05/08 03:48:15;;;;;;;;;;;12.80;99.90;;;;;;5104748;28;19920;-69
2023/05/08 03:50:42;;;;;;;;;;;12.70;99.90;;;;;;5104737;28;19983;-68
2023/05/08 03:53:09;;;;;;;;;;;12.80;99.90;;;;;;5104297;28;19991;-67
2023/05/08 03:55:36;;;;;;;;;;;12.70;99.90;;;;;;5104434;28;19988;-67
2023/05/08 03:58:05;;;;;;;;;;;12.70;99.90;;;;;;5104283;28;20111;-67
2023/05/08 04:00:36;;;;;;;;;;;12.70;99.90;;;;;;5104682;28;19961;-67
2023/05/08 04:03:21;;;;;;;;;;;12.70;99.90;;;;;;5104310;28;20329;-69
2023/05/08 04:05:51;;;;;;;;;;;12.70;99.90;;;;;;5103977;28;19920;-67
2023/05/08 04:08:20;;;;;;;;;;;12.70;99.90;;;;;;5104297;28;19920;-67
2023/05/08 04:10:50;;;;;;;;;;;12.70;99.90;;;;;;5104651;28;20111;-67
2023/05/08 04:13:19;;;;;;;;;;;12.70;99.90;;;;;;5104166;28;20208;-67
2023/05/08 04:15:50;;;;;;;;;;;12.70;99.90;;;;;;5104176;28;20179;-67
2023/05/08 04:18:22;;;;;;;;;;;12.70;99.90;;;;;;5103931;28;20227;-68
2023/05/08 04:20:49;;;;;;;;;;;12.70;99.90;;;;;;5104591;28;19963;-68
2023/05/08 04:23:18;;;;;;;;;;;12.60;99.90;;;;;;5104418;28;19920;-67
2023/05/08 04:25:45;;;;;;;;;;;12.50;99.90;;;;;;5104454;28;19986;-67
2023/05/08 04:28:12;;;;;;;;;;;12.50;99.90;;;;;;5104381;28;19955;-67
2023/05/08 04:30:39;;;;;;;;;;;12.50;99.90;;;;;;5104225;28;19920;-67
2023/05/08 04:33:06;;;;;;;;;;;12.50;99.90;;;;;;5103654;28;19990;-67
2023/05/08 04:35:34;;;;;;;;;;;12.50;99.90;;;;;;5104110;28;19983;-67
2023/05/08 04:38:01;;;;;;;;;;;12.40;99.90;;;;;;5103356;28;19926;-67
2023/05/08 04:40:28;;;;;;;;;;;12.50;99.90;;;;;;5103168;28;20290;-68
2023/05/08 04:42:55;;;;;;;;;;;12.40;99.90;;;;;;5103689;28;19982;-67
2023/05/08 04:45:22;;;;;;;;;;;12.40;99.90;;;;;;5103913;28;19983;-68
2023/05/08 04:47:48;;;;;;;;;;;12.40;99.90;;;;;;5103288;28;20264;-68
2023/05/08 04:50:15;;;;;;;;;;;12.30;99.90;;;;;;5103534;28;20255;-68
2023/05/08 04:52:43;;;;;;;;;;;12.30;99.90;;;;;;5103719;28;19983;-67
2023/05/08 04:55:10;;;;;;;;;;;12.30;99.90;;;;;;5103481;28;19988;-67
2023/05/08 04:57:36;;;;;;;;;;;12.30;99.90;;;;;;5103370;28;19920;-68
2023/05/08 05:00:03;;;;;;;;;;;12.30;99.90;;;;;;5103826;28;19987;-67
2023/05/08 05:02:30;;;;;;;;;;;12.30;99.90;;;;;;5103724;28;19920;-68
2023/05/08 05:05:00;;;;;;;;;;;12.20;99.90;;;;;;5103644;28;19951;-68
2023/05/08 05:07:26;;;;;;;;;;;12.30;99.90;;;;;;5099197;28;19920;-68
2023/05/08 05:09:54;;;;;;;;;;;12.30;99.90;;;;;;5105719;28;19926;-68
2023/05/08 05:12:23;;;;;;;;;;;12.30;99.90;;;;;;5102895;28;19920;-67
2023/05/08 05:14:50;;;;;;;;;;;12.20;99.90;;;;;;5102489;28;19920;-68
2023/05/08 05:17:16;;;;;;;;;;;12.20;99.90;;;;;;5102537;28;19920;-68
2023/05/08 05:19:43;;;;;;;;;;;12.20;99.90;;;;;;5103700;28;19962;-70
2023/05/08 05:22:09;;;;;;;;;;;12.20;99.90;;;;;;5103018;28;19987;-68
2023/05/08 05:24:36;;;;;;;;;;;12.30;99.90;;;;;;5102601;28;19926;-67
2023/05/08 05:27:04;;;;;;;;;;;12.30;99.90;;;;;;5102677;28;19955;-67
2023/05/08 05:29:31;;;;;;;;;;;12.30;99.90;;;;;;5103518;28;20123;-66
2023/05/08 05:31:57;;;;;;;;;;;12.40;99.90;;;;;;5103356;28;19920;-66
2023/05/08 05:34:24;;;;;;;;;;;12.30;99.90;;;;;;5100241;28;19971;-68
2023/05/08 05:36:50;;;;;;;;;;;12.40;99.90;;;;;;5102729;28;19920;-68
2023/05/08 05:39:17;;;;;;;;;;;12.30;99.90;;;;;;5103414;28;19963;-68
2023/05/08 05:41:44;;;;;;;;;;;12.40;99.90;;;;;;5103193;28;19988;-68
2023/05/08 05:44:12;;;;;;;;;;;12.40;99.90;;;;;;5103112;28;20266;-68
2023/05/08 05:46:38;;;;;;;;;;;12.40;99.90;;;;;;5102403;28;19983;-66
2023/05/08 05:49:05;;;;;;;;;;;12.50;99.90;;;;;;5103390;28;19952;-68
2023/05/08 05:51:32;;;;;;;;;;;12.50;99.90;;;;;;5100717;28;20127;-68
2023/05/08 05:53:58;;;;;;;;;;;12.50;99.90;;;;;;5107189;28;19927;-68
2023/05/08 05:56:25;;;;;;;;;;;12.50;99.90;;;;;;5106542;28;19920;-68
2023/05/08 05:58:51;;;;;;;;;;;12.50;99.90;;;;;;5107212;28;19984;-69
2023/05/08 06:01:19;;;;;;;;;;;12.50;99.90;;;;;;5106732;28;20195;-67
2023/05/08 06:03:46;;;;;;;;;;;12.60;99.90;;;;;;5106993;28;20085;-68
2023/05/08 06:06:13;;;;;;;;;;;12.60;99.90;;;;;;5106365;28;19977;-68
2023/05/08 06:08:39;;;;;;;;;;;12.60;99.90;;;;;;5106671;28;19920;-69
2023/05/08 06:11:06;;;;;;;;;;;12.60;99.90;;;;;;5106613;28;19983;-67
2023/05/08 06:13:33;;;;;;;;;;;12.60;99.90;;;;;;5106851;28;20120;-68
2023/05/08 06:15:59;;;;;;;;;;;12.60;99.90;;;;;;5106393;28;19983;-67
2023/05/08 06:18:27;;;;;;;;;;;12.60;99.90;;;;;;5106060;28;19942;-67
2023/05/08 06:20:57;;;;;;;;;;;12.60;99.90;;;;;;5106763;28;20112;-68
2023/05/08 06:23:24;;;;;;;;;;;12.50;99.90;;;;;;5106207;28;19920;-69
2023/05/08 06:25:51;;;;;;;;;;;12.50;99.90;;;;;;5106488;28;19962;-67
2023/05/08 06:28:17;;;;;;;;;;;12.50;99.90;;;;;;5104076;28;19919;-67
2023/05/08 06:30:44;;;;;;;;;;;12.50;99.90;;;;;;5106517;28;19942;-68
2023/05/08 06:33:11;;;;;;;;;;;12.50;99.90;;;;;;5105229;28;19920;-69
2023/05/08 06:35:39;;;;;;;;;;;12.50;99.90;;;;;;5106299;28;19924;-67
2023/05/08 06:38:05;;;;;;;;;;;12.50;99.90;;;;;;5106171;28;19920;-68
2023/05/08 06:40:32;;;;;;;;;;;12.60;99.90;;;;;;5103479;28;19982;-68
2023/05/08 06:42:59;;;;;;;;;;;12.60;99.90;;;;;;5106348;28;19920;-68
2023/05/08 06:45:25;;;;;;;;;;;12.60;99.90;;;;;;5105880;28;19987;-67
2023/05/08 06:47:52;;;;;;;;;;;12.60;99.90;;;;;;5105799;28;19983;-69
2023/05/08 06:50:19;;;;;;;;;;;12.70;99.90;;;;;;5106130;28;20055;-68
2023/05/08 06:52:46;;;;;;;;;;;12.70;99.90;;;;;;5105758;28;20263;-68
2023/05/08 06:55:13;;;;;;;;;;;12.70;99.90;;;;;;5105921;28;19983;-67
2023/05/08 06:57:40;;;;;;;;;;;12.70;99.90;;;;;;5105397;28;19920;-67
2023/05/08 07:00:07;;;;;;;;;;;12.70;99.90;;;;;;5103792;28;20167;-68
2023/05/08 07:02:34;;;;;;;;;;;12.70;99.90;;;;;;5105562;28;19983;-68
2023/05/08 07:05:01;;;;;;;;;;;12.80;99.90;;;;;;5105768;28;19979;-67
2023/05/08 07:07:28;;;;;;;;;;;12.80;99.90;;;;;;5105272;28;19927;-67
2023/05/08 07:09:56;;;;;;;;;;;12.80;99.90;;;;;;5105820;28;19920;-68
2023/05/08 07:12:22;;;;;;;;;;;12.90;99.90;;;;;;5105356;28;20139;-67
2023/05/08 07:14:49;;;;;;;;;;;12.90;99.90;;;;;;5105541;28;19920;-69
2023/05/08 07:17:16;;;;;;;;;;;13.00;99.90;;;;;;5105182;28;19966;-68
2023/05/08 07:19:43;;;;;;;;;;;13.00;99.90;;;;;;5105644;28;19958;-67
2023/05/08 07:22:09;;;;;;;;;;;13.00;99.90;;;;;;5105301;28;20255;-68
2023/05/08 07:24:36;;;;;;;;;;;13.10;99.90;;;;;;5105162;28;19983;-69
2023/05/08 07:27:04;;;;;;;;;;;13.20;99.90;;;;;;5105169;28;20158;-67
2023/05/08 07:29:30;;;;;;;;;;;13.30;99.90;;;;;;5105461;28;19927;-67
2023/05/08 07:31:57;;;;;;;;;;;13.40;99.90;;;;;;5105475;28;19988;-70
2023/05/08 07:34:24;;;;;;;;;;;13.50;99.90;;;;;;5102213;28;19964;-67
2023/05/08 07:36:50;;;;;;;;;;;13.60;99.90;;;;;;5105011;28;19920;-68
2023/05/08 07:39:18;;;;;;;;;;;13.70;99.90;;;;;;5102406;28;19960;-68
2023/05/08 07:41:45;;;;;;;;;;;13.70;99.90;;;;;;5105237;28;19991;-69
2023/05/08 07:44:13;;;;;;;;;;;13.80;99.90;;;;;;5099640;28;19920;-68
2023/05/08 07:46:40;;;;;;;;;;;13.90;99.90;;;;;;5097311;28;19920;-69
2023/05/08 07:49:07;;;;;;;;;;;14.00;99.90;;;;;;5088872;28;19921;-69
2023/05/08 07:51:33;;;;;;;;;;;14.00;99.90;;;;;;5083408;28;20038;-69
2023/05/08 07:54:00;;;;;;;;;;;14.00;99.90;;;;;;5089276;28;19920;-68
2023/05/08 07:56:27;;;;;;;;;;;14.10;99.90;;;;;;5095724;28;19983;-69
2023/05/08 07:58:53;;;;;;;;;;;14.00;99.90;;;;;;5084518;28;19988;-69
2023/05/08 08:01:21;;;;;;;;;;;14.00;99.90;;;;;;5097968;28;19920;-70
2023/05/08 08:03:48;;;;;;;;;;;14.00;99.90;;;;;;5102520;28;19920;-68
2023/05/08 08:06:15;;;;;;;;;;;14.10;99.90;;;;;;5099797;28;19970;-68
2023/05/08 08:08:42;;;;;;;;;;;14.10;99.90;;;;;;5096091;28;19971;-69
2023/05/08 08:11:09;;;;;;;;;;;14.20;99.90;;;;;;5101744;28;19983;-69
2023/05/08 08:13:35;;;;;;;;;;;14.20;99.90;;;;;;5103978;28;19924;-69
2023/05/08 08:16:03;;;;;;;;;;;14.30;99.90;;;;;;5101632;28;20398;-68
2023/05/08 08:18:33;;;;;;;;;;;14.30;99.90;;;;;;5104225;28;20103;-67
2023/05/08 08:21:00;;;;;;;;;;;14.40;99.90;;;;;;5104403;28;19920;-69
2023/05/08 08:23:26;;;;;;;;;;;14.40;99.90;;;;;;5103964;28;19983;-69
2023/05/08 08:25:53;;;;;;;;;;;14.40;99.90;;;;;;5098820;28;19959;-68
2023/05/08 08:28:19;;;;;;;;;;;14.50;99.90;;;;;;5083632;28;19927;-68
2023/05/08 08:30:46;;;;;;;;;;;14.50;99.90;;;;;;5083733;28;19956;-69
2023/05/08 08:33:13;;;;;;;;;;;14.50;99.90;;;;;;5082536;28;19971;-68
2023/05/08 08:35:41;;;;;;;;;;;14.60;99.90;;;;;;5082627;28;19988;-69
2023/05/08 08:38:07;;;;;;;;;;;14.60;99.90;;;;;;5083576;28;19981;-69
2023/05/08 08:40:38;;;;;;;;;;;14.60;99.90;;;;;;5086174;28;19980;-69
2023/05/08 08:43:05;;;;;;;;;;;14.60;99.90;;;;;;5103811;28;20235;-68
2023/05/08 08:45:31;;;;;;;;;;;14.70;99.90;;;;;;5103831;28;19924;-69
2023/05/08 08:48:01;;;;;;;;;;;14.60;99.90;;;;;;5103217;28;20212;-69
2023/05/08 08:50:31;;;;;;;;;;;14.60;99.90;;;;;;5103764;28;19928;-70
2023/05/08 08:53:03;;;;;;;;;;;14.60;99.90;;;;;;5103605;28;19926;-68
2023/05/08 08:55:29;;;;;;;;;;;14.60;99.90;;;;;;5099167;28;20381;-69
2023/05/08 08:58:00;;;;;;;;;;;14.50;99.90;;;;;;5098590;28;19983;-69
2023/05/08 09:00:28;;;;;;;;;;;14.50;99.90;;;;;;5093654;28;19983;-68
2023/05/08 09:02:55;;;;;;;;;;;14.50;99.90;;;;;;5083600;28;19927;-70
2023/05/08 09:05:22;;;;;;;;;;;14.60;99.90;;;;;;5099055;28;19981;-69
2023/05/08 09:07:49;;;;;;;;;;;14.60;99.90;;;;;;5103701;28;19961;-68
2023/05/08 09:10:17;;;;;;;;;;;14.60;99.90;;;;;;5103820;28;19946;-69
2023/05/08 09:12:44;;;;;;;;;;;14.60;99.90;;;;;;5096879;28;19921;-68
2023/05/08 09:15:11;;;;;;;;;;;14.70;99.90;;;;;;5085990;28;19926;-68
2023/05/08 09:17:38;;;;;;;;;;;14.70;99.90;;;;;;5081148;28;19920;-67
2023/05/08 09:20:05;;;;;;;;;;;14.80;99.90;;;;;;5082539;28;19979;-68
2023/05/08 09:22:32;;;;;;;;;;;14.80;99.90;;;;;;5083331;28;19920;-68
2023/05/08 09:25:00;;;;;;;;;;;14.80;99.90;;;;;;5082363;28;19928;-69
2023/05/08 09:27:28;;;;;;;;;;;14.90;99.90;;;;;;5086902;28;19963;-67
2023/05/08 09:29:59;;;;;;;;;;;14.90;99.90;;;;;;5089779;28;20115;-68
2023/05/08 09:32:26;;;;;;;;;;;15.00;99.90;;;;;;5101060;28;19927;-68
2023/05/08 09:34:52;;;;;;;;;;;15.10;99.90;;;;;;5091022;28;19968;-69
2023/05/08 09:37:19;;;;;;;;;;;15.20;99.90;;;;;;5087921;28;19927;-68
2023/05/08 09:39:46;;;;;;;;;;;15.30;99.90;;;;;;5107641;28;19920;-69
2023/05/08 09:42:13;;;;;;;;;;;15.30;99.90;;;;;;5105113;28;19953;-68
2023/05/08 09:44:45;;;;;;;;;;;15.40;99.90;;;;;;5107145;28;19927;-68
2023/05/08 09:47:12;;;;;;;;;;;15.50;99.90;;;;;;5094521;28;19920;-69
2023/05/08 09:49:39;;;;;;;;;;;15.60;99.90;;;;;;5087151;28;19928;-67
2023/05/08 09:52:06;;;;;;;;;;;15.70;99.90;;;;;;5094421;28;19920;-68
2023/05/08 09:54:33;;;;;;;;;;;15.70;99.90;;;;;;5107164;28;19926;-68
2023/05/08 09:56:59;;;;;;;;;;;15.70;99.90;;;;;;5106457;28;19984;-68
2023/05/08 09:59:27;;;;;;;;;;;15.80;99.90;;;;;;5107102;28;19979;-67
2023/05/08 10:01:55;;;;;;;;;;;15.80;99.90;;;;;;5107182;28;19921;-69
2023/05/08 10:04:32;;;;;;;;;;;15.90;99.90;;;;;;5093381;28;19920;-69
2023/05/08 10:06:59;;;;;;;;;;;16.00;99.90;;;;;;5083387;28;19920;-68
2023/05/08 10:09:25;;;;;;;;;;;16.00;99.90;;;;;;5086614;28;20355;-68
2023/05/08 10:11:54;;;;;;;;;;;16.10;99.90;;;;;;5086420;28;19987;-67
2023/05/08 10:14:21;;;;;;;;;;;16.10;99.90;;;;;;5086480;28;19966;-69
2023/05/08 10:16:48;;;;;;;;;;;16.10;99.90;;;;;;5085484;28;19921;-70
2023/05/08 10:19:17;;;;;;;;;;;16.20;99.90;;;;;;5082336;28;20224;-68
2023/05/08 10:21:46;;;;;;;;;;;16.30;99.90;;;;;;5085429;28;20171;-67
2023/05/08 10:24:14;;;;;;;;;;;16.30;99.90;;;;;;5085855;28;19920;-67
2023/05/08 10:26:42;;;;;;;;;;;16.30;99.90;;;;;;5085717;28;19926;-67
2023/05/08 10:29:11;;;;;;;;;;;16.30;99.90;;;;;;5085906;28;19931;-68
2023/05/08 10:31:40;;;;;;;;;;;16.40;99.90;;;;;;5086277;28;19928;-67
2023/05/08 10:34:07;;;;;;;;;;;16.40;99.90;;;;;;5085873;28;19920;-68
2023/05/08 10:36:36;;;;;;;;;;;16.40;99.90;;;;;;5085770;28;19920;-66
2023/05/08 10:39:03;;;;;;;;;;;16.50;99.90;;;;;;5094123;28;19926;-67
2023/05/08 10:41:29;;;;;;;;;;;16.60;99.90;;;;;;5126807;28;19979;-68
2023/05/08 10:43:57;;;;;;;;;;;16.60;99.90;;;;;;5126723;28;19920;-68
2023/05/08 10:46:29;;;;;;;;;;;16.50;99.90;;;;;;5125926;28;20450;-67
2023/05/08 10:48:59;;;;;;;;;;;16.50;99.90;;;;;;5126680;28;19965;-67
2023/05/08 10:51:29;;;;;;;;;;;16.60;99.90;;;;;;5124340;28;19978;-67
2023/05/08 10:54:00;;;;;;;;;;;16.60;99.90;;;;;;5106035;28;19969;-68
2023/05/08 10:56:27;;;;;;;;;;;16.80;99.90;;;;;;5105793;28;19920;-68
2023/05/08 10:58:55;;;;;;;;;;;16.90;99.90;;;;;;5106131;28;20049;-68
2023/05/08 11:01:22;;;;;;;;;;;16.90;99.90;;;;;;5106021;28;19921;-68
2023/05/08 11:03:53;;;;;;;;;;;16.90;99.90;;;;;;5092074;28;19996;-68
2023/05/08 11:06:35;;;;;;;;;;;16.90;99.90;;;;;;5084671;28;19966;-68
2023/05/08 11:09:03;;;;;;;;;;;17.00;99.90;;;;;;5085093;28;19920;-69
2023/05/08 11:11:30;;;;;;;;;;;17.10;99.90;;;;;;5095475;28;19965;-68
2023/05/08 11:14:10;;;;;;;;;;;17.10;99.90;;;;;;5104854;28;19920;-68
2023/05/08 11:16:55;;;;;;;;;;;17.20;99.90;;;;;;5085403;28;19932;-67
2023/05/08 11:19:22;;;;;;;;;;;17.30;99.90;;;;;;5089533;28;20415;-66
2023/05/08 11:22:08;;;;;;;;;;;17.40;99.90;;;;;;5105341;28;20112;-67
2023/05/08 11:24:36;;;;;;;;;;;17.50;99.90;;;;;;5104986;28;19980;-67
2023/05/08 11:27:02;;;;;;;;;;;17.50;99.90;;;;;;5104166;28;19955;-69
2023/05/08 11:29:29;;;;;;;;;;;17.50;99.90;;;;;;5104732;28;19920;-69
2023/05/08 11:31:56;;;;;;;;;;;17.60;99.90;;;;;;5088990;28;19920;-67
2023/05/08 11:34:41;;;;;;;;;;;17.60;99.90;;;;;;5083292;28;19927;-68
2023/05/08 11:37:09;;;;;;;;;;;17.60;99.90;;;;;;5082722;28;19997;-67
2023/05/08 11:39:37;;;;;;;;;;;17.60;99.90;;;;;;5085124;28;20107;-67
2023/05/08 11:42:22;;;;;;;;;;;17.60;99.90;;;;;;5085020;28;19920;-67
2023/05/08 11:44:48;;;;;;;;;;;17.60;99.90;;;;;;5083758;28;19920;-67
2023/05/08 11:47:18;;;;;;;;;;;17.60;99.90;;;;;;5083979;28;19920;-69
2023/05/08 11:49:44;;;;;;;;;;;17.50;99.90;;;;;;5083432;28;19920;-69
2023/05/08 11:52:11;;;;;;;;;;;17.50;99.90;;;;;;5092022;28;19920;-67
2023/05/08 11:54:39;;;;;;;;;;;17.30;99.90;;;;;;5099066;28;19934;-68
2023/05/08 11:57:06;;;;;;;;;;;17.30;99.90;;;;;;5099791;28;19927;-69
2023/05/08 11:59:34;;;;;;;;;;;17.20;99.90;;;;;;5103525;28;19965;-68
2023/05/08 12:02:01;;;;;;;;;;;17.20;99.90;;;;;;5104007;28;19920;-68
2023/05/08 12:04:28;;;;;;;;;;;17.30;99.90;;;;;;5103031;28;20263;-68
2023/05/08 12:06:58;;;;;;;;;;;17.20;99.90;;;;;;5102705;28;19920;-68
2023/05/08 12:09:24;;;;;;;;;;;17.20;99.90;;;;;;5103713;28;19920;-69
2023/05/08 12:11:56;;;;;;;;;;;17.20;99.90;;;;;;5092664;28;19920;-69
2023/05/08 12:14:23;;;;;;;;;;;17.20;99.90;;;;;;5103362;28;19919;-67
2023/05/08 12:16:50;;;;;;;;;;;17.10;99.90;;;;;;5103405;28;19991;-69
2023/05/08 12:19:17;;;;;;;;;;;17.00;99.90;;;;;;5104612;28;19927;-68
2023/05/08 12:21:46;;;;;;;;;;;16.90;99.90;;;;;;5101947;28;19983;-68
2023/05/08 12:24:13;;;;;;;;;;;16.80;99.90;;;;;;5103955;28;20266;-68
2023/05/08 12:26:39;;;;;;;;;;;16.70;99.90;;;;;;5103706;28;19987;-67
2023/05/08 12:29:08;;;;;;;;;;;16.70;99.90;;;;;;5103950;28;20204;-69
2023/05/08 12:31:35;;;;;;;;;;;16.80;99.90;;;;;;5101856;28;19920;-69
2023/05/08 12:34:02;;;;;;;;;;;16.80;99.90;;;;;;5103712;28;19965;-68
2023/05/08 12:36:29;;;;;;;;;;;16.90;99.90;;;;;;5102710;28;19947;-68
2023/05/08 12:39:08;;;;;;;;;;;17.00;99.90;;;;;;5104242;28;19974;-68
2023/05/08 12:41:35;;;;;;;;;;;17.00;99.90;;;;;;5103550;28;19987;-69
2023/05/08 12:44:01;;;;;;;;;;;17.00;99.90;;;;;;5103834;28;19958;-66
2023/05/08 12:46:31;;;;;;;;;;;17.00;99.90;;;;;;5103178;28;19995;-67
2023/05/08 12:49:03;;;;;;;;;;;17.00;99.90;;;;;;5103530;28;19962;-67
2023/05/08 12:51:30;;;;;;;;;;;17.10;99.90;;;;;;5103612;28;19920;-66
2023/05/08 12:53:57;;;;;;;;;;;17.20;99.90;;;;;;5102706;28;19942;-68
2023/05/08 12:56:24;;;;;;;;;;;17.20;99.90;;;;;;5103144;28;19932;-67
2023/05/08 12:58:50;;;;;;;;;;;17.40;99.90;;;;;;5103432;28;19927;-68
2023/05/08 13:01:17;;;;;;;;;;;17.40;99.90;;;;;;5102470;28;19951;-67
2023/05/08 13:03:52;;;;;;;;;;;17.50;99.90;;;;;;5102615;28;20355;-67
2023/05/08 13:06:19;;;;;;;;;;;17.50;99.90;;;;;;5102728;28;19920;-66
2023/05/08 13:08:46;;;;;;;;;;;17.50;99.90;;;;;;5103143;28;19932;-67
2023/05/08 13:11:12;;;;;;;;;;;17.50;99.90;;;;;;5103287;28;19991;-67
2023/05/08 13:13:39;;;;;;;;;;;17.50;99.90;;;;;;5103531;28;19988;-67
2023/05/08 13:16:06;;;;;;;;;;;17.40;99.90;;;;;;5102648;28;20011;-68
2023/05/08 13:18:35;;;;;;;;;;;17.40;99.90;;;;;;5103388;28;19983;-68
2023/05/08 13:21:03;;;;;;;;;;;17.40;99.90;;;;;;5100718;28;20241;-69
2023/05/08 13:23:30;;;;;;;;;;;17.40;99.90;;;;;;5100625;28;20184;-67
2023/05/08 13:25:56;;;;;;;;;;;17.40;99.90;;;;;;5103248;28;19927;-67
2023/05/08 13:28:23;;;;;;;;;;;17.40;99.90;;;;;;5103149;28;19948;-67
2023/05/08 13:30:50;;;;;;;;;;;17.40;99.90;;;;;;5102927;28;19983;-67
2023/05/08 13:33:16;;;;;;;;;;;17.50;99.90;;;;;;5103232;28;19920;-66
2023/05/08 13:35:43;;;;;;;;;;;17.50;99.90;;;;;;5102458;28;20263;-67
2023/05/08 13:38:11;;;;;;;;;;;17.50;99.90;;;;;;5103076;28;19987;-67
2023/05/08 13:40:37;;;;;;;;;;;17.50;99.90;;;;;;5102275;28;19920;-66
2023/05/08 13:43:04;;;;;;;;;;;17.50;99.90;;;;;;5101878;28;19920;-67
2023/05/08 13:45:31;;;;;;;;;;;17.50;99.90;;;;;;5101509;28;19919;-67
2023/05/08 13:47:58;;;;;;;;;;;17.50;99.90;;;;;;5102491;28;20181;-67
2023/05/08 13:50:24;;;;;;;;;;;17.40;99.90;;;;;;5103099;28;19928;-67
2023/05/08 13:52:51;;;;;;;;;;;17.40;99.90;;;;;;5102018;28;19939;-67
2023/05/08 13:55:21;;;;;;;;;;;17.40;99.90;;;;;;5102431;28;19995;-66
2023/05/08 13:57:48;;;;;;;;;;;17.40;99.90;;;;;;5097946;28;19958;-66
2023/05/08 14:00:15;;;;;;;;;;;17.40;99.90;;;;;;5102872;28;19982;-67
2023/05/08 14:02:42;;;;;;;;;;;17.40;99.90;;;;;;5098531;28;19983;-67
2023/05/08 14:05:08;;;;;;;;;;;17.40;99.90;;;;;;5102282;28;19926;-66
2023/05/08 14:07:36;;;;;;;;;;;17.50;99.90;;;;;;5099589;28;19958;-67
2023/05/08 14:10:03;;;;;;;;;;;17.50;99.90;;;;;;5099435;28;19929;-67
2023/05/08 14:12:34;;;;;;;;;;;17.60;99.90;;;;;;5099307;28;19920;-67
2023/05/08 14:15:01;;;;;;;;;;;17.60;99.90;;;;;;5100577;28;19927;-67
2023/05/08 14:17:28;;;;;;;;;;;17.60;99.90;;;;;;5095466;28;20112;-67
2023/05/08 14:19:54;;;;;;;;;;;17.70;99.90;;;;;;5105685;28;19983;-67
2023/05/08 14:22:21;;;;;;;;;;;17.70;99.90;;;;;;5091917;28;20209;-67